sensor_id;sensor_type;location;lat;lon;timestamp;P1;durP1;ratioP1;P2;durP2;ratioP2
77864;SDS011;67061;48.524;9.040;2023-03-21T00:00:29;4.13;;;2.20;;
77864;SDS011;67061;48.524;9.040;2023-03-21T00:02:56;3.97;;;2.42;;
77864;SDS011;67061;48.524;9.040;2023-03-21T00:05:24;3.28;;;2.03;;
77864;SDS011;67061;48.524;9.040;2023-03-21T00:07:52;3.95;;;2.40;;
77864;SDS011;67061;48.524;9.040;2023-03-21T00:10:19;5.47;;;3.42;;
77864;SDS011;67061;48.524;9.040;2023-03-21T00:12:46;4.30;;;2.15;;
77864;SDS011;67061;48.524;9.040;2023-03-21T00:15:14;4.25;;;2.30;;
77864;SDS011;67061;48.524;9.040;2023-03-21T00:17:42;4.82;;;2.30;;
77864;SDS011;67061;48.524;9.040;2023-03-21T00:20:10;3.53;;;2.17;;
77864;SDS011;67061;48.524;9.040;2023-03-21T00:22:40;4.25;;;2.10;;
77864;SDS011;67061;48.524;9.040;2023-03-21T00:25:08;4.78;;;2.42;;
77864;SDS011;67061;48.524;9.040;2023-03-21T00:27:35;6.22;;;2.50;;
77864;SDS011;67061;48.524;9.040;2023-03-21T00:30:03;6.78;;;2.58;;
77864;SDS011;67061;48.524;9.040;2023-03-21T00:32:31;4.15;;;2.67;;
77864;SDS011;67061;48.524;9.040;2023-03-21T00:34:58;5.03;;;2.53;;
77864;SDS011;67061;48.524;9.040;2023-03-21T00:37:25;4.43;;;2.30;;
77864;SDS011;67061;48.524;9.040;2023-03-21T00:39:53;4.38;;;2.00;;
77864;SDS011;67061;48.524;9.040;2023-03-21T00:42:20;3.78;;;2.08;;
77864;SDS011;67061;48.524;9.040;2023-03-21T00:44:48;4.13;;;2.50;;
77864;SDS011;67061;48.524;9.040;2023-03-21T00:47:15;5.97;;;2.58;;
77864;SDS011;67061;48.524;9.040;2023-03-21T00:49:42;5.25;;;2.50;;
77864;SDS011;67061;48.524;9.040;2023-03-21T00:52:09;6.15;;;3.03;;
77864;SDS011;67061;48.524;9.040;2023-03-21T00:54:36;4.43;;;2.60;;
77864;SDS011;67061;48.524;9.040;2023-03-21T00:57:04;6.05;;;2.92;;
77864;SDS011;67061;48.524;9.040;2023-03-21T00:59:31;4.03;;;2.30;;
77864;SDS011;67061;48.524;9.040;2023-03-21T01:01:58;4.50;;;2.67;;
77864;SDS011;67061;48.524;9.040;2023-03-21T01:04:26;4.57;;;2.45;;
77864;SDS011;67061;48.524;9.040;2023-03-21T01:06:53;4.32;;;2.70;;
77864;SDS011;67061;48.524;9.040;2023-03-21T01:09:21;3.72;;;2.40;;
77864;SDS011;67061;48.524;9.040;2023-03-21T01:11:49;4.40;;;2.80;;
77864;SDS011;67061;48.524;9.040;2023-03-21T01:14:18;5.05;;;3.08;;
77864;SDS011;67061;48.524;9.040;2023-03-21T01:16:47;5.03;;;2.53;;
77864;SDS011;67061;48.524;9.040;2023-03-21T01:19:15;6.55;;;2.53;;
77864;SDS011;67061;48.524;9.040;2023-03-21T01:21:43;5.32;;;3.33;;
77864;SDS011;67061;48.524;9.040;2023-03-21T01:24:10;4.97;;;3.20;;
77864;SDS011;67061;48.524;9.040;2023-03-21T01:26:37;5.93;;;3.33;;
77864;SDS011;67061;48.524;9.040;2023-03-21T01:29:04;6.28;;;4.47;;
77864;SDS011;67061;48.524;9.040;2023-03-21T01:31:32;5.53;;;3.30;;
77864;SDS011;67061;48.524;9.040;2023-03-21T01:33:59;5.85;;;3.53;;
77864;SDS011;67061;48.524;9.040;2023-03-21T01:36:26;4.53;;;2.95;;
77864;SDS011;67061;48.524;9.040;2023-03-21T01:38:53;4.40;;;3.08;;
77864;SDS011;67061;48.524;9.040;2023-03-21T01:41:24;4.68;;;2.50;;
77864;SDS011;67061;48.524;9.040;2023-03-21T01:43:53;5.20;;;3.17;;
77864;SDS011;67061;48.524;9.040;2023-03-21T01:49:09;5.60;;;3.25;;
77864;SDS011;67061;48.524;9.040;2023-03-21T01:51:42;4.50;;;2.95;;
77864;SDS011;67061;48.524;9.040;2023-03-21T01:56:47;6.07;;;2.97;;
77864;SDS011;67061;48.524;9.040;2023-03-21T01:59:16;4.60;;;2.90;;
77864;SDS011;67061;48.524;9.040;2023-03-21T02:01:48;7.65;;;3.42;;
77864;SDS011;67061;48.524;9.040;2023-03-21T02:04:16;5.20;;;2.63;;
77864;SDS011;67061;48.524;9.040;2023-03-21T02:06:53;4.25;;;2.83;;
77864;SDS011;67061;48.524;9.040;2023-03-21T02:09:24;6.40;;;3.05;;
77864;SDS011;67061;48.524;9.040;2023-03-21T02:11:55;4.70;;;2.90;;
77864;SDS011;67061;48.524;9.040;2023-03-21T02:14:23;5.32;;;3.30;;
77864;SDS011;67061;48.524;9.040;2023-03-21T02:16:53;4.70;;;2.85;;
77864;SDS011;67061;48.524;9.040;2023-03-21T02:31:10;4.88;;;2.67;;
77864;SDS011;67061;48.524;9.040;2023-03-21T02:37:09;4.25;;;2.65;;
77864;SDS011;67061;48.524;9.040;2023-03-21T02:39:52;5.22;;;3.20;;
77864;SDS011;67061;48.524;9.040;2023-03-21T02:42:26;4.43;;;2.78;;
77864;SDS011;67061;48.524;9.040;2023-03-21T02:45:00;5.40;;;2.92;;
77864;SDS011;67061;48.524;9.040;2023-03-21T02:47:32;5.50;;;3.05;;
77864;SDS011;67061;48.524;9.040;2023-03-21T02:50:04;5.35;;;2.47;;
77864;SDS011;67061;48.524;9.040;2023-03-21T02:52:37;5.65;;;3.20;;
77864;SDS011;67061;48.524;9.040;2023-03-21T02:55:07;6.13;;;2.90;;
77864;SDS011;67061;48.524;9.040;2023-03-21T02:57:38;5.60;;;2.80;;
77864;SDS011;67061;48.524;9.040;2023-03-21T03:00:07;4.50;;;2.55;;
77864;SDS011;67061;48.524;9.040;2023-03-21T03:02:37;5.55;;;3.17;;
77864;SDS011;67061;48.524;9.040;2023-03-21T03:05:11;6.57;;;3.20;;
77864;SDS011;67061;48.524;9.040;2023-03-21T03:07:44;4.70;;;2.72;;
77864;SDS011;67061;48.524;9.040;2023-03-21T03:10:52;6.28;;;3.38;;
77864;SDS011;67061;48.524;9.040;2023-03-21T03:13:44;6.10;;;3.70;;
77864;SDS011;67061;48.524;9.040;2023-03-21T03:16:20;5.70;;;3.30;;
77864;SDS011;67061;48.524;9.040;2023-03-21T03:18:54;5.40;;;3.45;;
77864;SDS011;67061;48.524;9.040;2023-03-21T03:21:24;7.07;;;3.70;;
77864;SDS011;67061;48.524;9.040;2023-03-21T03:23:58;4.78;;;3.10;;
77864;SDS011;67061;48.524;9.040;2023-03-21T03:26:28;4.88;;;2.90;;
77864;SDS011;67061;48.524;9.040;2023-03-21T03:28:59;5.20;;;3.10;;
77864;SDS011;67061;48.524;9.040;2023-03-21T03:31:30;5.50;;;2.95;;
77864;SDS011;67061;48.524;9.040;2023-03-21T03:34:03;5.88;;;3.13;;
77864;SDS011;67061;48.524;9.040;2023-03-21T03:36:36;7.78;;;3.45;;
77864;SDS011;67061;48.524;9.040;2023-03-21T03:39:08;5.93;;;3.78;;
77864;SDS011;67061;48.524;9.040;2023-03-21T03:41:40;5.20;;;3.17;;
77864;SDS011;67061;48.524;9.040;2023-03-21T03:44:10;6.43;;;3.55;;
77864;SDS011;67061;48.524;9.040;2023-03-21T03:46:39;5.28;;;3.55;;
77864;SDS011;67061;48.524;9.040;2023-03-21T03:49:12;5.57;;;3.55;;
77864;SDS011;67061;48.524;9.040;2023-03-21T03:51:43;5.88;;;4.07;;
77864;SDS011;67061;48.524;9.040;2023-03-21T03:54:18;6.25;;;3.90;;
77864;SDS011;67061;48.524;9.040;2023-03-21T03:56:48;5.82;;;3.33;;
77864;SDS011;67061;48.524;9.040;2023-03-21T03:59:15;6.82;;;3.90;;
77864;SDS011;67061;48.524;9.040;2023-03-21T04:01:46;8.35;;;4.20;;
77864;SDS011;67061;48.524;9.040;2023-03-21T04:04:13;6.22;;;3.78;;
77864;SDS011;67061;48.524;9.040;2023-03-21T04:06:41;6.53;;;3.85;;
77864;SDS011;67061;48.524;9.040;2023-03-21T04:09:09;6.00;;;3.88;;
77864;SDS011;67061;48.524;9.040;2023-03-21T04:11:39;5.72;;;3.65;;
77864;SDS011;67061;48.524;9.040;2023-03-21T04:14:05;5.15;;;3.20;;
77864;SDS011;67061;48.524;9.040;2023-03-21T04:16:32;7.80;;;4.15;;
77864;SDS011;67061;48.524;9.040;2023-03-21T04:18:59;6.03;;;3.50;;
77864;SDS011;67061;48.524;9.040;2023-03-21T04:21:26;6.75;;;3.70;;
77864;SDS011;67061;48.524;9.040;2023-03-21T04:23:54;6.38;;;3.60;;
77864;SDS011;67061;48.524;9.040;2023-03-21T04:26:21;6.63;;;3.78;;
77864;SDS011;67061;48.524;9.040;2023-03-21T04:28:50;6.65;;;4.00;;
77864;SDS011;67061;48.524;9.040;2023-03-21T04:31:17;6.25;;;3.58;;
77864;SDS011;67061;48.524;9.040;2023-03-21T04:33:44;6.90;;;3.83;;
77864;SDS011;67061;48.524;9.040;2023-03-21T04:36:12;8.07;;;3.75;;
77864;SDS011;67061;48.524;9.040;2023-03-21T04:38:49;7.00;;;4.35;;
77864;SDS011;67061;48.524;9.040;2023-03-21T04:41:16;6.63;;;4.50;;
77864;SDS011;67061;48.524;9.040;2023-03-21T04:43:43;8.48;;;4.00;;
77864;SDS011;67061;48.524;9.040;2023-03-21T04:46:12;6.50;;;3.42;;
77864;SDS011;67061;48.524;9.040;2023-03-21T04:48:39;7.05;;;4.20;;
77864;SDS011;67061;48.524;9.040;2023-03-21T04:51:06;6.53;;;3.63;;
77864;SDS011;67061;48.524;9.040;2023-03-21T04:53:33;5.50;;;3.30;;
77864;SDS011;67061;48.524;9.040;2023-03-21T04:56:02;7.90;;;3.40;;
77864;SDS011;67061;48.524;9.040;2023-03-21T04:58:30;6.18;;;3.47;;
77864;SDS011;67061;48.524;9.040;2023-03-21T05:00:57;5.20;;;3.30;;
77864;SDS011;67061;48.524;9.040;2023-03-21T05:03:27;5.95;;;3.60;;
77864;SDS011;67061;48.524;9.040;2023-03-21T05:05:58;8.85;;;3.80;;
77864;SDS011;67061;48.524;9.040;2023-03-21T05:08:25;7.20;;;4.28;;
77864;SDS011;67061;48.524;9.040;2023-03-21T05:10:52;6.60;;;3.58;;
77864;SDS011;67061;48.524;9.040;2023-03-21T05:13:19;6.05;;;3.80;;
77864;SDS011;67061;48.524;9.040;2023-03-21T05:15:46;6.70;;;3.67;;
77864;SDS011;67061;48.524;9.040;2023-03-21T05:18:13;7.13;;;3.78;;
77864;SDS011;67061;48.524;9.040;2023-03-21T05:20:50;6.63;;;3.38;;
77864;SDS011;67061;48.524;9.040;2023-03-21T05:23:19;4.28;;;2.95;;
77864;SDS011;67061;48.524;9.040;2023-03-21T05:25:46;4.70;;;2.90;;
77864;SDS011;67061;48.524;9.040;2023-03-21T05:28:14;7.78;;;3.40;;
77864;SDS011;67061;48.524;9.040;2023-03-21T05:30:42;5.40;;;3.33;;
77864;SDS011;67061;48.524;9.040;2023-03-21T05:33:10;6.57;;;4.05;;
77864;SDS011;67061;48.524;9.040;2023-03-21T05:35:36;7.00;;;3.75;;
77864;SDS011;67061;48.524;9.040;2023-03-21T05:38:05;8.68;;;3.28;;
77864;SDS011;67061;48.524;9.040;2023-03-21T05:40:32;6.38;;;3.58;;
77864;SDS011;67061;48.524;9.040;2023-03-21T05:42:59;6.35;;;3.60;;
77864;SDS011;67061;48.524;9.040;2023-03-21T05:45:26;6.72;;;3.75;;
77864;SDS011;67061;48.524;9.040;2023-03-21T05:47:53;6.50;;;3.67;;
77864;SDS011;67061;48.524;9.040;2023-03-21T05:50:20;7.05;;;3.72;;
77864;SDS011;67061;48.524;9.040;2023-03-21T05:52:47;7.13;;;3.47;;
77864;SDS011;67061;48.524;9.040;2023-03-21T05:55:15;6.85;;;3.58;;
77864;SDS011;67061;48.524;9.040;2023-03-21T05:57:42;7.32;;;4.30;;
77864;SDS011;67061;48.524;9.040;2023-03-21T06:00:10;9.57;;;4.57;;
77864;SDS011;67061;48.524;9.040;2023-03-21T06:02:37;6.63;;;3.83;;
77864;SDS011;67061;48.524;9.040;2023-03-21T06:05:05;9.95;;;4.13;;
77864;SDS011;67061;48.524;9.040;2023-03-21T06:07:32;6.65;;;3.85;;
77864;SDS011;67061;48.524;9.040;2023-03-21T06:09:59;7.90;;;4.45;;
77864;SDS011;67061;48.524;9.040;2023-03-21T06:12:27;7.38;;;3.97;;
77864;SDS011;67061;48.524;9.040;2023-03-21T06:14:54;6.47;;;4.15;;
77864;SDS011;67061;48.524;9.040;2023-03-21T06:17:21;6.82;;;4.13;;
77864;SDS011;67061;48.524;9.040;2023-03-21T06:19:49;7.07;;;4.35;;
77864;SDS011;67061;48.524;9.040;2023-03-21T06:22:16;7.97;;;4.60;;
77864;SDS011;67061;48.524;9.040;2023-03-21T06:24:43;7.68;;;4.65;;
77864;SDS011;67061;48.524;9.040;2023-03-21T06:27:09;7.32;;;4.22;;
77864;SDS011;67061;48.524;9.040;2023-03-21T06:29:38;8.45;;;4.80;;
77864;SDS011;67061;48.524;9.040;2023-03-21T06:32:05;9.93;;;4.85;;
77864;SDS011;67061;48.524;9.040;2023-03-21T06:34:32;7.55;;;5.28;;
77864;SDS011;67061;48.524;9.040;2023-03-21T06:36:59;7.97;;;5.20;;
77864;SDS011;67061;48.524;9.040;2023-03-21T06:39:28;6.72;;;4.65;;
77864;SDS011;67061;48.524;9.040;2023-03-21T06:41:56;8.85;;;4.50;;
77864;SDS011;67061;48.524;9.040;2023-03-21T06:44:24;6.95;;;4.50;;
77864;SDS011;67061;48.524;9.040;2023-03-21T06:46:52;8.13;;;5.10;;
77864;SDS011;67061;48.524;9.040;2023-03-21T06:49:20;9.05;;;4.50;;
77864;SDS011;67061;48.524;9.040;2023-03-21T06:51:47;10.23;;;4.53;;
77864;SDS011;67061;48.524;9.040;2023-03-21T06:54:14;11.68;;;4.90;;
77864;SDS011;67061;48.524;9.040;2023-03-21T06:56:42;7.65;;;4.43;;
77864;SDS011;67061;48.524;9.040;2023-03-21T06:59:09;7.35;;;4.63;;
77864;SDS011;67061;48.524;9.040;2023-03-21T07:01:36;7.25;;;4.93;;
77864;SDS011;67061;48.524;9.040;2023-03-21T07:04:04;7.93;;;4.90;;
77864;SDS011;67061;48.524;9.040;2023-03-21T07:06:31;7.63;;;4.72;;
77864;SDS011;67061;48.524;9.040;2023-03-21T07:08:58;7.82;;;5.82;;
77864;SDS011;67061;48.524;9.040;2023-03-21T07:11:27;9.13;;;4.18;;
77864;SDS011;67061;48.524;9.040;2023-03-21T07:13:54;7.00;;;3.95;;
77864;SDS011;67061;48.524;9.040;2023-03-21T07:16:21;7.15;;;4.03;;
77864;SDS011;67061;48.524;9.040;2023-03-21T07:18:49;7.90;;;4.10;;
77864;SDS011;67061;48.524;9.040;2023-03-21T07:21:17;6.68;;;3.53;;
77864;SDS011;67061;48.524;9.040;2023-03-21T07:23:44;5.93;;;3.10;;
77864;SDS011;67061;48.524;9.040;2023-03-21T07:26:11;6.68;;;4.10;;
77864;SDS011;67061;48.524;9.040;2023-03-21T07:28:40;6.05;;;3.58;;
77864;SDS011;67061;48.524;9.040;2023-03-21T07:31:07;7.25;;;3.58;;
77864;SDS011;67061;48.524;9.040;2023-03-21T07:33:34;6.63;;;3.38;;
77864;SDS011;67061;48.524;9.040;2023-03-21T07:36:01;6.38;;;3.72;;
77864;SDS011;67061;48.524;9.040;2023-03-21T07:38:29;8.63;;;5.72;;
77864;SDS011;67061;48.524;9.040;2023-03-21T07:40:57;8.55;;;3.75;;
77864;SDS011;67061;48.524;9.040;2023-03-21T07:43:25;5.82;;;3.42;;
77864;SDS011;67061;48.524;9.040;2023-03-21T07:45:55;6.50;;;3.70;;
77864;SDS011;67061;48.524;9.040;2023-03-21T07:48:22;6.43;;;3.50;;
77864;SDS011;67061;48.524;9.040;2023-03-21T07:50:49;6.50;;;3.53;;
77864;SDS011;67061;48.524;9.040;2023-03-21T07:53:16;5.57;;;3.17;;
77864;SDS011;67061;48.524;9.040;2023-03-21T07:55:45;6.25;;;3.90;;
77864;SDS011;67061;48.524;9.040;2023-03-21T07:58:15;7.45;;;3.75;;
77864;SDS011;67061;48.524;9.040;2023-03-21T08:00:42;6.05;;;3.65;;
77864;SDS011;67061;48.524;9.040;2023-03-21T08:03:09;5.93;;;3.42;;
77864;SDS011;67061;48.524;9.040;2023-03-21T08:05:37;6.65;;;3.92;;
77864;SDS011;67061;48.524;9.040;2023-03-21T08:08:05;5.65;;;3.70;;
77864;SDS011;67061;48.524;9.040;2023-03-21T08:10:32;6.55;;;3.88;;
77864;SDS011;67061;48.524;9.040;2023-03-21T08:13:01;6.43;;;3.38;;
77864;SDS011;67061;48.524;9.040;2023-03-21T08:15:28;6.07;;;3.83;;
77864;SDS011;67061;48.524;9.040;2023-03-21T08:17:57;6.55;;;3.80;;
77864;SDS011;67061;48.524;9.040;2023-03-21T08:20:24;6.30;;;3.45;;
77864;SDS011;67061;48.524;9.040;2023-03-21T08:22:51;6.72;;;4.15;;
77864;SDS011;67061;48.524;9.040;2023-03-21T08:25:19;6.70;;;3.78;;
77864;SDS011;67061;48.524;9.040;2023-03-21T08:27:46;6.80;;;3.22;;
77864;SDS011;67061;48.524;9.040;2023-03-21T08:30:16;4.90;;;3.53;;
77864;SDS011;67061;48.524;9.040;2023-03-21T08:32:45;5.88;;;3.75;;
77864;SDS011;67061;48.524;9.040;2023-03-21T08:35:14;5.93;;;3.38;;
77864;SDS011;67061;48.524;9.040;2023-03-21T08:37:43;5.10;;;3.33;;
77864;SDS011;67061;48.524;9.040;2023-03-21T08:40:11;8.13;;;3.35;;
77864;SDS011;67061;48.524;9.040;2023-03-21T08:42:41;4.88;;;3.42;;
77864;SDS011;67061;48.524;9.040;2023-03-21T08:45:09;6.40;;;3.63;;
77864;SDS011;67061;48.524;9.040;2023-03-21T08:47:38;4.80;;;3.08;;
77864;SDS011;67061;48.524;9.040;2023-03-21T08:50:06;4.63;;;3.22;;
77864;SDS011;67061;48.524;9.040;2023-03-21T08:52:36;6.15;;;3.38;;
77864;SDS011;67061;48.524;9.040;2023-03-21T08:55:04;4.45;;;2.80;;
77864;SDS011;67061;48.524;9.040;2023-03-21T08:57:32;4.57;;;2.80;;
77864;SDS011;67061;48.524;9.040;2023-03-21T09:05:34;4.25;;;2.50;;
77864;SDS011;67061;48.524;9.040;2023-03-21T09:08:01;4.18;;;2.50;;
77864;SDS011;67061;48.524;9.040;2023-03-21T09:10:28;4.90;;;2.30;;
77864;SDS011;67061;48.524;9.040;2023-03-21T09:12:55;4.60;;;2.60;;
77864;SDS011;67061;48.524;9.040;2023-03-21T09:15:26;6.95;;;2.72;;
77864;SDS011;67061;48.524;9.040;2023-03-21T09:17:54;4.43;;;2.55;;
77864;SDS011;67061;48.524;9.040;2023-03-21T09:20:38;5.35;;;2.45;;
77864;SDS011;67061;48.524;9.040;2023-03-21T09:23:07;3.83;;;2.08;;
77864;SDS011;67061;48.524;9.040;2023-03-21T09:25:37;4.55;;;2.10;;
77864;SDS011;67061;48.524;9.040;2023-03-21T09:28:05;3.38;;;1.90;;
77864;SDS011;67061;48.524;9.040;2023-03-21T09:30:33;3.15;;;1.92;;
77864;SDS011;67061;48.524;9.040;2023-03-21T09:33:02;5.22;;;2.08;;
77864;SDS011;67061;48.524;9.040;2023-03-21T09:35:31;3.92;;;2.45;;
77864;SDS011;67061;48.524;9.040;2023-03-21T09:38:00;4.55;;;1.90;;
77864;SDS011;67061;48.524;9.040;2023-03-21T09:40:30;5.47;;;2.53;;
77864;SDS011;67061;48.524;9.040;2023-03-21T09:43:10;4.65;;;2.50;;
77864;SDS011;67061;48.524;9.040;2023-03-21T09:45:45;4.45;;;2.22;;
77864;SDS011;67061;48.524;9.040;2023-03-21T09:48:18;3.80;;;2.08;;
77864;SDS011;67061;48.524;9.040;2023-03-21T09:50:56;4.60;;;2.70;;
77864;SDS011;67061;48.524;9.040;2023-03-21T09:53:26;5.70;;;2.28;;
77864;SDS011;67061;48.524;9.040;2023-03-21T09:55:58;4.95;;;2.55;;
77864;SDS011;67061;48.524;9.040;2023-03-21T09:58:29;6.18;;;3.78;;
77864;SDS011;67061;48.524;9.040;2023-03-21T10:01:02;5.00;;;2.50;;
77864;SDS011;67061;48.524;9.040;2023-03-21T10:03:34;4.82;;;2.42;;
77864;SDS011;67061;48.524;9.040;2023-03-21T10:08:39;4.20;;;2.65;;
77864;SDS011;67061;48.524;9.040;2023-03-21T10:11:09;4.45;;;2.30;;
77864;SDS011;67061;48.524;9.040;2023-03-21T10:13:45;4.57;;;2.55;;
77864;SDS011;67061;48.524;9.040;2023-03-21T10:16:20;3.83;;;2.40;;
77864;SDS011;67061;48.524;9.040;2023-03-21T10:18:51;4.15;;;2.38;;
77864;SDS011;67061;48.524;9.040;2023-03-21T10:21:21;3.55;;;2.30;;
77864;SDS011;67061;48.524;9.040;2023-03-21T10:23:52;3.90;;;2.40;;
77864;SDS011;67061;48.524;9.040;2023-03-21T10:26:21;6.05;;;2.60;;
77864;SDS011;67061;48.524;9.040;2023-03-21T10:28:50;4.70;;;2.47;;
77864;SDS011;67061;48.524;9.040;2023-03-21T10:31:19;5.43;;;2.53;;
77864;SDS011;67061;48.524;9.040;2023-03-21T10:33:49;4.57;;;2.42;;
77864;SDS011;67061;48.524;9.040;2023-03-21T10:36:18;3.50;;;2.58;;
77864;SDS011;67061;48.524;9.040;2023-03-21T10:38:51;3.88;;;2.28;;
77864;SDS011;67061;48.524;9.040;2023-03-21T10:41:21;3.60;;;2.10;;
77864;SDS011;67061;48.524;9.040;2023-03-21T10:44:02;3.78;;;2.42;;
77864;SDS011;67061;48.524;9.040;2023-03-21T10:46:31;4.22;;;2.38;;
77864;SDS011;67061;48.524;9.040;2023-03-21T10:48:59;3.90;;;2.60;;
77864;SDS011;67061;48.524;9.040;2023-03-21T10:51:27;5.18;;;2.20;;
77864;SDS011;67061;48.524;9.040;2023-03-21T10:53:58;4.13;;;2.40;;
77864;SDS011;67061;48.524;9.040;2023-03-21T10:56:31;4.45;;;2.72;;
77864;SDS011;67061;48.524;9.040;2023-03-21T10:59:02;5.45;;;2.53;;
77864;SDS011;67061;48.524;9.040;2023-03-21T11:01:34;5.00;;;2.50;;
77864;SDS011;67061;48.524;9.040;2023-03-21T11:04:05;3.85;;;2.67;;
77864;SDS011;67061;48.524;9.040;2023-03-21T11:06:35;4.53;;;2.40;;
77864;SDS011;67061;48.524;9.040;2023-03-21T11:09:06;4.70;;;2.65;;
77864;SDS011;67061;48.524;9.040;2023-03-21T11:11:38;4.03;;;2.58;;
77864;SDS011;67061;48.524;9.040;2023-03-21T11:14:07;3.83;;;2.03;;
77864;SDS011;67061;48.524;9.040;2023-03-21T11:16:49;3.70;;;2.42;;
77864;SDS011;67061;48.524;9.040;2023-03-21T11:19:17;4.82;;;2.47;;
77864;SDS011;67061;48.524;9.040;2023-03-21T11:21:51;6.68;;;2.33;;
77864;SDS011;67061;48.524;9.040;2023-03-21T11:24:20;4.20;;;2.40;;
77864;SDS011;67061;48.524;9.040;2023-03-21T11:29:24;3.58;;;2.08;;
77864;SDS011;67061;48.524;9.040;2023-03-21T11:31:56;4.30;;;2.58;;
77864;SDS011;67061;48.524;9.040;2023-03-21T11:34:27;4.90;;;2.53;;
77864;SDS011;67061;48.524;9.040;2023-03-21T11:36:59;4.45;;;2.80;;
77864;SDS011;67061;48.524;9.040;2023-03-21T11:39:36;4.95;;;2.00;;
77864;SDS011;67061;48.524;9.040;2023-03-21T11:42:08;3.42;;;2.03;;
77864;SDS011;67061;48.524;9.040;2023-03-21T11:44:59;5.25;;;2.20;;
77864;SDS011;67061;48.524;9.040;2023-03-21T11:47:29;3.97;;;2.60;;
77864;SDS011;67061;48.524;9.040;2023-03-21T11:49:56;3.92;;;2.80;;
77864;SDS011;67061;48.524;9.040;2023-03-21T11:52:26;3.30;;;2.30;;
77864;SDS011;67061;48.524;9.040;2023-03-21T11:57:57;3.55;;;2.30;;
77864;SDS011;67061;48.524;9.040;2023-03-21T12:00:31;5.53;;;2.60;;
77864;SDS011;67061;48.524;9.040;2023-03-21T12:03:25;6.00;;;2.72;;
77864;SDS011;67061;48.524;9.040;2023-03-21T12:06:04;4.93;;;1.75;;
77864;SDS011;67061;48.524;9.040;2023-03-21T12:08:49;3.05;;;1.48;;
77864;SDS011;67061;48.524;9.040;2023-03-21T12:11:27;2.97;;;1.48;;
77864;SDS011;67061;48.524;9.040;2023-03-21T12:14:04;3.70;;;1.80;;
77864;SDS011;67061;48.524;9.040;2023-03-21T12:16:43;3.45;;;1.40;;
77864;SDS011;67061;48.524;9.040;2023-03-21T12:19:25;3.58;;;1.52;;
77864;SDS011;67061;48.524;9.040;2023-03-21T12:22:09;2.58;;;1.77;;
77864;SDS011;67061;48.524;9.040;2023-03-21T12:24:40;3.72;;;2.15;;
77864;SDS011;67061;48.524;9.040;2023-03-21T12:27:17;4.20;;;1.90;;
77864;SDS011;67061;48.524;9.040;2023-03-21T12:32:26;3.42;;;1.17;;
77864;SDS011;67061;48.524;9.040;2023-03-21T12:35:20;3.03;;;1.40;;
77864;SDS011;67061;48.524;9.040;2023-03-21T12:37:59;2.75;;;1.50;;
77864;SDS011;67061;48.524;9.040;2023-03-21T12:40:42;2.30;;;1.25;;
77864;SDS011;67061;48.524;9.040;2023-03-21T12:43:22;2.70;;;1.77;;
77864;SDS011;67061;48.524;9.040;2023-03-21T12:45:57;3.90;;;1.83;;
77864;SDS011;67061;48.524;9.040;2023-03-21T12:48:31;2.92;;;1.10;;
77864;SDS011;67061;48.524;9.040;2023-03-21T12:51:03;2.90;;;1.25;;
77864;SDS011;67061;48.524;9.040;2023-03-21T12:53:34;3.45;;;1.10;;
77864;SDS011;67061;48.524;9.040;2023-03-21T12:56:16;2.92;;;1.15;;
77864;SDS011;67061;48.524;9.040;2023-03-21T12:58:48;2.78;;;1.25;;
77864;SDS011;67061;48.524;9.040;2023-03-21T13:01:20;2.75;;;1.52;;
77864;SDS011;67061;48.524;9.040;2023-03-21T13:03:49;3.50;;;1.52;;
77864;SDS011;67061;48.524;9.040;2023-03-21T13:06:31;2.70;;;1.60;;
77864;SDS011;67061;48.524;9.040;2023-03-21T13:08:59;2.83;;;1.17;;
77864;SDS011;67061;48.524;9.040;2023-03-21T13:11:32;3.38;;;1.35;;
77864;SDS011;67061;48.524;9.040;2023-03-21T13:14:02;2.80;;;1.30;;
77864;SDS011;67061;48.524;9.040;2023-03-21T13:16:32;2.28;;;1.17;;
77864;SDS011;67061;48.524;9.040;2023-03-21T13:19:04;3.95;;;1.00;;
77864;SDS011;67061;48.524;9.040;2023-03-21T13:21:50;2.65;;;1.20;;
77864;SDS011;67061;48.524;9.040;2023-03-21T13:24:26;4.45;;;1.40;;
77864;SDS011;67061;48.524;9.040;2023-03-21T13:26:58;3.45;;;1.20;;
77864;SDS011;67061;48.524;9.040;2023-03-21T13:29:32;2.22;;;1.20;;
77864;SDS011;67061;48.524;9.040;2023-03-21T13:32:09;2.65;;;1.33;;
77864;SDS011;67061;48.524;9.040;2023-03-21T13:34:42;2.90;;;1.17;;
77864;SDS011;67061;48.524;9.040;2023-03-21T13:37:12;3.60;;;1.33;;
77864;SDS011;67061;48.524;9.040;2023-03-21T13:39:44;3.47;;;0.82;;
77864;SDS011;67061;48.524;9.040;2023-03-21T13:42:16;1.77;;;0.60;;
77864;SDS011;67061;48.524;9.040;2023-03-21T13:44:51;2.17;;;0.63;;
77864;SDS011;67061;48.524;9.040;2023-03-21T13:47:22;1.80;;;0.68;;
77864;SDS011;67061;48.524;9.040;2023-03-21T13:50:13;2.72;;;1.50;;
77864;SDS011;67061;48.524;9.040;2023-03-21T13:55:45;2.33;;;0.65;;
77864;SDS011;67061;48.524;9.040;2023-03-21T13:58:23;2.15;;;0.40;;
77864;SDS011;67061;48.524;9.040;2023-03-21T14:01:15;3.08;;;0.60;;
77864;SDS011;67061;48.524;9.040;2023-03-21T14:03:55;1.65;;;0.50;;
77864;SDS011;67061;48.524;9.040;2023-03-21T14:06:24;2.33;;;0.50;;
77864;SDS011;67061;48.524;9.040;2023-03-21T14:08:57;2.28;;;0.60;;
77864;SDS011;67061;48.524;9.040;2023-03-21T14:11:26;3.72;;;0.52;;
77864;SDS011;67061;48.524;9.040;2023-03-21T14:13:57;1.73;;;0.52;;
77864;SDS011;67061;48.524;9.040;2023-03-21T14:16:26;2.15;;;0.40;;
77864;SDS011;67061;48.524;9.040;2023-03-21T14:18:55;1.92;;;1.05;;
77864;SDS011;67061;48.524;9.040;2023-03-21T14:21:27;2.17;;;0.60;;
77864;SDS011;67061;48.524;9.040;2023-03-21T14:23:56;1.20;;;0.50;;
77864;SDS011;67061;48.524;9.040;2023-03-21T14:26:25;1.58;;;0.57;;
77864;SDS011;67061;48.524;9.040;2023-03-21T14:28:54;2.28;;;0.50;;
77864;SDS011;67061;48.524;9.040;2023-03-21T14:31:21;2.50;;;0.38;;
77864;SDS011;67061;48.524;9.040;2023-03-21T14:33:50;1.63;;;0.35;;
77864;SDS011;67061;48.524;9.040;2023-03-21T14:36:23;2.60;;;0.30;;
77864;SDS011;67061;48.524;9.040;2023-03-21T14:41:45;1.45;;;0.20;;
77864;SDS011;67061;48.524;9.040;2023-03-21T14:44:16;1.17;;;0.30;;
77864;SDS011;67061;48.524;9.040;2023-03-21T14:46:50;2.05;;;0.47;;
77864;SDS011;67061;48.524;9.040;2023-03-21T14:49:23;1.25;;;0.15;;
77864;SDS011;67061;48.524;9.040;2023-03-21T14:51:52;3.35;;;0.20;;
77864;SDS011;67061;48.524;9.040;2023-03-21T14:54:21;2.00;;;0.30;;
77864;SDS011;67061;48.524;9.040;2023-03-21T14:56:52;1.30;;;0.43;;
77864;SDS011;67061;48.524;9.040;2023-03-21T14:59:24;1.95;;;0.40;;
77864;SDS011;67061;48.524;9.040;2023-03-21T15:01:55;2.08;;;0.60;;
77864;SDS011;67061;48.524;9.040;2023-03-21T15:04:25;1.27;;;0.30;;
77864;SDS011;67061;48.524;9.040;2023-03-21T15:06:53;2.25;;;0.38;;
77864;SDS011;67061;48.524;9.040;2023-03-21T15:09:23;2.05;;;0.43;;
77864;SDS011;67061;48.524;9.040;2023-03-21T15:11:53;2.92;;;0.50;;
77864;SDS011;67061;48.524;9.040;2023-03-21T15:14:23;1.95;;;0.38;;
77864;SDS011;67061;48.524;9.040;2023-03-21T15:16:56;1.48;;;0.45;;
77864;SDS011;67061;48.524;9.040;2023-03-21T15:19:35;2.92;;;0.50;;
77864;SDS011;67061;48.524;9.040;2023-03-21T15:22:05;2.58;;;0.55;;
77864;SDS011;67061;48.524;9.040;2023-03-21T15:24:40;2.78;;;0.75;;
77864;SDS011;67061;48.524;9.040;2023-03-21T15:27:12;1.40;;;0.52;;
77864;SDS011;67061;48.524;9.040;2023-03-21T15:29:41;2.60;;;0.50;;
77864;SDS011;67061;48.524;9.040;2023-03-21T15:32:12;1.63;;;0.30;;
77864;SDS011;67061;48.524;9.040;2023-03-21T15:34:43;1.50;;;0.45;;
77864;SDS011;67061;48.524;9.040;2023-03-21T15:37:15;3.10;;;0.93;;
77864;SDS011;67061;48.524;9.040;2023-03-21T15:39:44;4.07;;;0.63;;
77864;SDS011;67061;48.524;9.040;2023-03-21T15:42:23;1.60;;;0.68;;
77864;SDS011;67061;48.524;9.040;2023-03-21T15:44:53;1.38;;;0.35;;
77864;SDS011;67061;48.524;9.040;2023-03-21T15:47:35;2.72;;;0.32;;
77864;SDS011;67061;48.524;9.040;2023-03-21T15:50:08;2.35;;;0.73;;